Abington, Connecticut
Current Conditions -  °F | °C
As of 4:52 PM on Tuesday 25 Nov 2014 (Local Time) from KIJD Reporting Station
Clear Clear  
Wind Chill: 53°   Ceiling: Unl
Heat Index: 53°   Visibility: 10mi
Dew Point: 26°   Wind: 6mph
Humidity: 35%   Direction: 250°WSW
Pressure: 29.99"   Gusts: NA
Location:  41.86°N, 72.01°W
Report Text: KIJD 252152Z AUTO 25005KT 10SM CLR 12/M03 A2999 RMK AO2 SLP154 T01171033
Loading
Personal Weather Stations






























Interactive Weather Map New forecast layout! Learn more

10-Day Weather Forecast

Advertisements
Track Severe Weather on mobile